createdAt,value
2017-10-12T00:00:15.888Z,18.04
2017-10-12T00:05:18.591Z,17.99
2017-10-12T00:10:21.237Z,18.08
2017-10-12T00:15:23.186Z,18.01
2017-10-12T00:20:25.107Z,18.02
2017-10-12T00:25:27.068Z,18.11
2017-10-12T00:30:28.996Z,18.17
2017-10-12T00:35:30.942Z,18.15
2017-10-12T00:40:33.648Z,18.23
2017-10-12T00:45:36.343Z,18.16
2017-10-12T00:50:38.331Z,18.23
2017-10-12T00:55:40.234Z,18.19
2017-10-12T01:00:42.316Z,18.26
2017-10-12T01:05:44.302Z,18.27
2017-10-12T01:10:47.191Z,18.25
2017-10-12T01:15:49.975Z,18.31
2017-10-12T01:20:53.060Z,18.24
2017-10-12T01:25:55.070Z,18.15
2017-10-12T01:30:57.097Z,18.12
2017-10-12T01:35:59.132Z,18.10
2017-10-12T01:41:01.230Z,18.09
2017-10-12T01:46:03.329Z,17.88
2017-10-12T01:51:05.348Z,17.64
2017-10-12T01:56:07.322Z,17.66
2017-10-12T02:01:10.032Z,17.54
2017-10-12T02:06:12.008Z,17.46
2017-10-12T02:11:14.014Z,17.42
2017-10-12T02:16:15.963Z,17.49
2017-10-12T02:21:18.607Z,17.40
2017-10-12T02:26:20.693Z,17.35
2017-10-12T02:31:22.709Z,17.34
2017-10-12T02:36:24.683Z,17.34
2017-10-12T02:41:26.608Z,17.28
2017-10-12T02:46:29.419Z,17.14
2017-10-12T02:51:32.125Z,17.12
2017-10-12T02:56:34.084Z,17.04
2017-10-12T03:01:36.064Z,17.19
2017-10-12T03:06:38.048Z,17.19
2017-10-12T03:11:40.723Z,17.14
2017-10-12T03:16:42.836Z,17.17
2017-10-12T03:21:44.840Z,17.15
2017-10-12T03:26:46.787Z,17.11
2017-10-12T03:31:49.511Z,17.10
2017-10-12T03:36:52.374Z,17.06
2017-10-12T03:41:54.364Z,17.06
2017-10-12T03:46:56.392Z,17.04
2017-10-12T03:51:58.395Z,16.99
2017-10-12T03:57:00.383Z,17.01
2017-10-12T04:02:02.383Z,16.98
2017-10-12T04:07:04.378Z,16.78
2017-10-12T04:12:07.044Z,16.65
2017-10-12T04:17:08.949Z,16.62
2017-10-12T04:22:10.875Z,16.58
2017-10-12T04:27:12.789Z,16.73
2017-10-12T04:32:14.704Z,16.60
2017-10-12T04:37:16.680Z,16.70
2017-10-12T04:42:18.599Z,16.79
2017-10-12T04:47:20.528Z,16.66
2017-10-12T04:52:22.450Z,16.56
2017-10-12T04:57:24.403Z,16.62
2017-10-12T05:02:26.316Z,16.62
2017-10-12T05:07:28.210Z,16.68
2017-10-12T05:12:30.241Z,16.46
2017-10-12T05:17:32.877Z,16.34
2017-10-12T05:22:34.807Z,16.23
2017-10-12T05:27:36.760Z,16.07
2017-10-12T05:32:39.499Z,16.01
2017-10-12T05:37:41.433Z,15.90
2017-10-12T05:42:43.438Z,15.97
2017-10-12T05:47:45.356Z,16.09
2017-10-12T05:52:47.337Z,16.09
2017-10-12T05:57:49.347Z,16.05
2017-10-12T06:02:51.252Z,15.95
2017-10-12T06:07:53.184Z,16.06
2017-10-12T06:12:57.071Z,16.14
2017-10-12T06:17:59.699Z,16.31
2017-10-12T06:23:01.988Z,16.28
2017-10-12T06:28:04.678Z,16.32
2017-10-12T06:33:06.633Z,16.33
2017-10-12T06:38:08.859Z,16.34
2017-10-12T06:43:11.755Z,16.37
2017-10-12T06:48:14.522Z,16.38
2017-10-12T06:53:19.505Z,16.49
2017-10-12T06:58:26.744Z,16.82
2017-10-12T07:03:28.826Z,16.90
2017-10-12T07:08:30.743Z,16.95
2017-10-12T07:13:32.688Z,16.90
2017-10-12T07:18:38.238Z,16.82
2017-10-12T07:23:40.231Z,16.88
2017-10-12T07:28:43.830Z,16.91
2017-10-12T07:33:45.952Z,16.98
2017-10-12T07:38:54.831Z,17.05
2017-10-12T07:44:02.968Z,17.01
2017-10-12T07:49:05.594Z,16.92
2017-10-12T07:54:07.517Z,16.92
2017-10-12T07:59:09.472Z,17.21
2017-10-12T08:04:12.202Z,17.14
2017-10-12T08:09:14.931Z,17.29
2017-10-12T08:14:16.885Z,17.39
2017-10-12T08:19:18.827Z,17.40
2017-10-12T08:24:21.535Z,17.42
2017-10-12T08:29:23.457Z,17.42
2017-10-12T08:34:26.224Z,17.49
2017-10-12T08:39:28.202Z,17.60
2017-10-12T08:44:30.114Z,17.68
2017-10-12T08:49:32.059Z,17.71
2017-10-12T08:54:33.965Z,17.78
2017-10-12T08:59:35.876Z,17.81
2017-10-12T09:04:37.866Z,17.68
2017-10-12T09:09:39.878Z,17.90
2017-10-12T09:14:41.861Z,17.86
2017-10-12T09:19:43.794Z,18.14
2017-10-12T09:24:45.740Z,18.08
2017-10-12T09:29:47.763Z,18.08
2017-10-12T09:34:49.801Z,18.16
2017-10-12T09:39:51.808Z,18.13
2017-10-12T09:44:53.831Z,18.26
2017-10-12T09:49:55.847Z,18.27
2017-10-12T09:54:57.855Z,18.24
2017-10-12T10:00:00.597Z,18.43
2017-10-12T10:05:03.212Z,18.38
2017-10-12T10:10:05.804Z,18.52
2017-10-12T10:15:08.444Z,18.23
2017-10-12T10:20:10.343Z,18.11
2017-10-12T10:25:12.279Z,18.07
2017-10-12T10:30:14.225Z,18.20
2017-10-12T10:35:16.193Z,18.12
2017-10-12T10:40:18.103Z,18.21
2017-10-12T10:45:20.016Z,18.09
2017-10-12T10:50:22.774Z,18.24
2017-10-12T10:55:25.500Z,18.43
2017-10-12T11:00:28.163Z,18.47
2017-10-12T11:05:30.137Z,18.45
2017-10-12T11:10:32.785Z,18.60
2017-10-12T11:15:34.727Z,18.97
2017-10-12T11:20:36.644Z,19.26
2017-10-12T11:25:39.321Z,19.32
2017-10-12T11:30:41.260Z,19.04
2017-10-12T11:35:43.189Z,19.21
2017-10-12T11:40:45.886Z,18.96
2017-10-12T11:45:47.778Z,18.75
2017-10-12T11:50:49.730Z,18.91
2017-10-12T11:55:52.467Z,18.97
2017-10-12T12:00:55.130Z,19.31
2017-10-12T12:05:57.131Z,19.09
2017-10-12T12:10:59.071Z,19.03
2017-10-12T12:16:01.911Z,19.21
2017-10-12T12:21:04.082Z,19.34
2017-10-12T12:26:06.088Z,19.61
2017-10-12T12:31:09.035Z,19.65
2017-10-12T12:36:11.977Z,19.89
2017-10-12T12:41:13.893Z,19.64
2017-10-12T12:46:18.527Z,19.61
2017-10-12T12:51:21.414Z,19.84
2017-10-12T12:56:23.575Z,19.70
2017-10-12T13:01:30.569Z,19.96
2017-10-12T13:06:32.597Z,20.19
2017-10-12T13:11:38.890Z,19.88
2017-10-12T13:16:41.629Z,19.83
2017-10-12T13:21:44.271Z,19.74
2017-10-12T13:26:51.228Z,19.63
2017-10-12T13:31:56.110Z,19.56
2017-10-12T13:37:00.369Z,19.39
2017-10-12T13:42:03.975Z,19.43
2017-10-12T13:47:05.890Z,19.61
2017-10-12T13:52:10.083Z,19.76
2017-10-12T13:57:12.781Z,19.53
2017-10-12T14:02:14.779Z,19.22
2017-10-12T14:07:16.710Z,18.90
2017-10-12T14:12:18.764Z,18.70
2017-10-12T14:17:20.712Z,18.47
2017-10-12T14:22:24.177Z,18.42
2017-10-12T14:27:26.124Z,18.43
2017-10-12T14:32:28.038Z,18.42
2017-10-12T14:37:29.972Z,18.28
2017-10-12T14:42:31.957Z,18.48
2017-10-12T14:47:33.919Z,18.35
2017-10-12T14:52:35.894Z,18.49
2017-10-12T14:57:38.579Z,18.39
2017-10-12T15:02:40.577Z,18.53
2017-10-12T15:07:42.565Z,18.59
2017-10-12T15:12:44.520Z,18.44
2017-10-12T15:17:46.569Z,18.35
2017-10-12T15:22:48.553Z,18.28
2017-10-12T15:27:51.266Z,18.08
2017-10-12T15:32:53.978Z,18.01
2017-10-12T15:37:55.957Z,17.86
2017-10-12T15:42:57.879Z,17.71
2017-10-12T15:47:59.848Z,17.54
2017-10-12T15:53:01.825Z,17.46
2017-10-12T15:58:03.806Z,17.35
2017-10-12T16:03:05.759Z,17.15
2017-10-12T16:08:07.706Z,17.05
2017-10-12T16:13:09.630Z,17.10
2017-10-12T16:18:11.548Z,16.93
2017-10-12T16:23:13.533Z,16.78
2017-10-12T16:28:16.196Z,16.70
2017-10-12T16:33:18.171Z,16.57
2017-10-12T16:38:20.180Z,16.41
2017-10-12T16:43:22.545Z,16.35
2017-10-12T16:48:24.516Z,16.23
2017-10-12T16:53:26.442Z,16.16
2017-10-12T16:58:28.429Z,16.09
2017-10-12T17:03:30.361Z,16.02
2017-10-12T17:08:32.742Z,15.96
2017-10-12T17:13:34.711Z,15.88
2017-10-12T17:18:37.405Z,15.82
2017-10-12T17:28:42.110Z,15.63
2017-10-12T17:38:46.760Z,15.44
2017-10-12T17:43:48.655Z,15.38
2017-10-12T17:48:50.738Z,15.29
2017-10-12T17:53:52.720Z,15.32
2017-10-12T17:58:54.801Z,15.12
2017-10-12T18:04:03.807Z,15.07
2017-10-12T18:09:05.975Z,14.95
2017-10-12T18:14:08.470Z,15.01
2017-10-12T18:19:11.413Z,14.97
2017-10-12T18:24:13.879Z,14.79
2017-10-12T18:29:15.805Z,14.71
2017-10-12T18:34:17.914Z,14.65
2017-10-12T18:39:19.961Z,14.64
2017-10-12T18:44:21.964Z,14.53
2017-10-12T18:49:24.075Z,14.60
2017-10-12T18:54:27.678Z,14.64
2017-10-12T18:59:31.420Z,14.69
2017-10-12T19:04:34.564Z,14.74
2017-10-12T19:09:37.277Z,14.77
2017-10-12T19:14:40.184Z,14.98
2017-10-12T19:19:43.089Z,15.18
2017-10-12T19:24:45.650Z,15.35
2017-10-12T19:29:47.641Z,15.47
2017-10-12T19:34:49.655Z,15.45
2017-10-12T19:39:51.637Z,15.51
2017-10-12T19:44:53.591Z,15.45
2017-10-12T19:49:55.494Z,15.53
2017-10-12T19:54:57.411Z,15.54
2017-10-12T19:59:59.317Z,15.59
2017-10-12T20:05:02.001Z,15.66
2017-10-12T20:10:04.109Z,15.65
2017-10-12T20:15:06.270Z,15.71
2017-10-12T20:20:08.290Z,15.70
2017-10-12T20:25:10.892Z,15.73
2017-10-12T20:30:15.016Z,15.78
2017-10-12T20:35:17.307Z,15.87
2017-10-12T20:40:19.270Z,15.89
2017-10-12T20:45:21.238Z,15.86
2017-10-12T20:50:23.139Z,15.92
2017-10-12T20:55:25.121Z,15.94
2017-10-12T21:00:27.068Z,15.84
2017-10-12T21:05:29.765Z,15.80
2017-10-12T21:10:32.055Z,15.83
2017-10-12T21:15:34.894Z,15.82
2017-10-12T21:20:38.645Z,15.66
2017-10-12T21:25:41.390Z,15.50
2017-10-12T21:30:43.329Z,15.37
2017-10-12T21:35:45.231Z,15.13
2017-10-12T21:40:49.646Z,15.12
2017-10-12T21:45:53.878Z,15.04
2017-10-12T21:50:56.560Z,14.98
2017-10-12T21:55:58.941Z,14.96
2017-10-12T22:01:01.709Z,14.92
2017-10-12T22:06:04.016Z,14.87
2017-10-12T22:11:06.074Z,14.78
2017-10-12T22:16:08.015Z,14.85
2017-10-12T22:21:10.011Z,14.74
2017-10-12T22:26:12.699Z,14.69
2017-10-12T22:31:14.643Z,14.63
2017-10-12T22:36:16.694Z,14.72
2017-10-12T22:41:18.721Z,14.74
2017-10-12T22:46:20.707Z,14.87
2017-10-12T22:51:22.619Z,14.93
2017-10-12T22:56:24.581Z,14.94
2017-10-12T23:01:26.519Z,14.98
2017-10-12T23:06:28.578Z,15.14
2017-10-12T23:11:30.523Z,15.12
2017-10-12T23:16:32.451Z,15.16
2017-10-12T23:21:34.403Z,14.95
2017-10-12T23:26:36.504Z,14.96
2017-10-12T23:31:38.442Z,14.97
2017-10-12T23:36:40.410Z,14.88
2017-10-12T23:41:42.330Z,14.98
2017-10-12T23:46:44.287Z,15.02
2017-10-12T23:51:46.956Z,15.12
2017-10-12T23:56:48.901Z,15.13
